sensor_id;sensor_type;location;lat;lon;timestamp;pressure;altitude;pressure_sealevel;temperature;humidity
39793;BME280;26080;42.264;24.536;2023-10-13T00:02:11;99763.97;;;8.65;100.00
39793;BME280;26080;42.264;24.536;2023-10-13T00:04:36;99776.91;;;8.68;100.00
39793;BME280;26080;42.264;24.536;2023-10-13T00:07:03;99781.28;;;8.67;100.00
39793;BME280;26080;42.264;24.536;2023-10-13T00:09:30;99791.31;;;8.53;100.00
39793;BME280;26080;42.264;24.536;2023-10-13T00:12:01;99785.94;;;8.57;100.00
39793;BME280;26080;42.264;24.536;2023-10-13T00:14:28;99778.00;;;8.60;100.00
39793;BME280;26080;42.264;24.536;2023-10-13T00:17:01;99782.63;;;8.52;100.00
39793;BME280;26080;42.264;24.536;2023-10-13T00:19:29;99781.34;;;8.38;100.00
39793;BME280;26080;42.264;24.536;2023-10-13T00:22:07;99777.22;;;8.29;100.00
39793;BME280;26080;42.264;24.536;2023-10-13T00:24:37;99773.31;;;8.14;100.00
39793;BME280;26080;42.264;24.536;2023-10-13T00:27:18;99760.47;;;8.07;100.00
39793;BME280;26080;42.264;24.536;2023-10-13T00:30:03;99744.38;;;7.92;100.00
39793;BME280;26080;42.264;24.536;2023-10-13T00:32:42;99765.75;;;8.05;100.00
39793;BME280;26080;42.264;24.536;2023-10-13T00:35:11;99765.66;;;8.08;100.00
39793;BME280;26080;42.264;24.536;2023-10-13T00:38:00;99761.31;;;8.09;100.00
39793;BME280;26080;42.264;24.536;2023-10-13T00:40:30;99756.94;;;8.09;100.00
39793;BME280;26080;42.264;24.536;2023-10-13T00:42:59;99756.75;;;8.15;100.00
39793;BME280;26080;42.264;24.536;2023-10-13T00:45:45;99758.88;;;8.30;100.00
39793;BME280;26080;42.264;24.536;2023-10-13T00:48:23;99758.09;;;8.28;100.00
39793;BME280;26080;42.264;24.536;2023-10-13T00:51:02;99749.41;;;8.28;100.00
39793;BME280;26080;42.264;24.536;2023-10-13T00:53:29;99750.09;;;8.33;100.00
39793;BME280;26080;42.264;24.536;2023-10-13T00:56:00;99745.72;;;8.35;100.00
39793;BME280;26080;42.264;24.536;2023-10-13T00:58:32;99742.25;;;8.36;100.00
39793;BME280;26080;42.264;24.536;2023-10-13T01:01:02;99704.00;;;8.06;100.00
39793;BME280;26080;42.264;24.536;2023-10-13T01:03:48;99750.22;;;8.30;100.00
39793;BME280;26080;42.264;24.536;2023-10-13T01:06:18;99744.34;;;8.23;100.00
39793;BME280;26080;42.264;24.536;2023-10-13T01:08:48;99746.03;;;8.24;100.00
39793;BME280;26080;42.264;24.536;2023-10-13T01:11:17;99745.91;;;8.29;100.00
39793;BME280;26080;42.264;24.536;2023-10-13T01:13:43;99747.69;;;8.27;100.00
39793;BME280;26080;42.264;24.536;2023-10-13T01:16:09;99748.59;;;8.26;100.00
39793;BME280;26080;42.264;24.536;2023-10-13T01:18:36;99753.09;;;8.21;100.00
39793;BME280;26080;42.264;24.536;2023-10-13T01:21:12;99752.66;;;8.07;100.00
39793;BME280;26080;42.264;24.536;2023-10-13T01:23:40;99751.91;;;8.03;100.00
39793;BME280;26080;42.264;24.536;2023-10-13T01:26:07;99749.38;;;8.00;100.00
39793;BME280;26080;42.264;24.536;2023-10-13T01:28:34;99747.63;;;8.00;100.00
39793;BME280;26080;42.264;24.536;2023-10-13T01:31:10;99745.66;;;8.09;100.00
39793;BME280;26080;42.264;24.536;2023-10-13T01:33:37;99743.72;;;8.15;100.00
39793;BME280;26080;42.264;24.536;2023-10-13T01:36:02;99750.59;;;8.18;100.00
39793;BME280;26080;42.264;24.536;2023-10-13T01:38:32;99744.63;;;8.14;100.00
39793;BME280;26080;42.264;24.536;2023-10-13T01:40:58;99748.03;;;8.16;100.00
39793;BME280;26080;42.264;24.536;2023-10-13T01:43:24;99729.53;;;8.24;100.00
39793;BME280;26080;42.264;24.536;2023-10-13T01:45:50;99741.63;;;8.26;100.00
39793;BME280;26080;42.264;24.536;2023-10-13T01:48:16;99743.44;;;8.24;100.00
39793;BME280;26080;42.264;24.536;2023-10-13T01:50:45;99746.09;;;8.23;100.00
39793;BME280;26080;42.264;24.536;2023-10-13T01:53:20;99745.56;;;8.12;100.00
39793;BME280;26080;42.264;24.536;2023-10-13T01:55:47;99740.44;;;8.09;100.00
39793;BME280;26080;42.264;24.536;2023-10-13T01:58:14;99753.16;;;8.19;100.00
39793;BME280;26080;42.264;24.536;2023-10-13T02:00:44;99749.34;;;8.29;100.00
39793;BME280;26080;42.264;24.536;2023-10-13T02:03:11;99722.78;;;8.17;100.00
39793;BME280;26080;42.264;24.536;2023-10-13T02:05:40;99744.47;;;8.19;100.00
39793;BME280;26080;42.264;24.536;2023-10-13T02:08:12;99697.81;;;7.80;100.00
39793;BME280;26080;42.264;24.536;2023-10-13T02:10:43;99739.34;;;8.16;100.00
39793;BME280;26080;42.264;24.536;2023-10-13T02:13:12;99731.72;;;8.10;100.00
39793;BME280;26080;42.264;24.536;2023-10-13T02:15:40;99732.09;;;7.97;100.00
39793;BME280;26080;42.264;24.536;2023-10-13T02:18:08;99736.72;;;8.16;100.00
39793;BME280;26080;42.264;24.536;2023-10-13T02:20:34;99743.56;;;8.20;100.00
39793;BME280;26080;42.264;24.536;2023-10-13T02:23:07;99750.47;;;8.21;100.00
39793;BME280;26080;42.264;24.536;2023-10-13T02:25:36;99725.22;;;7.93;100.00
39793;BME280;26080;42.264;24.536;2023-10-13T02:28:08;99748.16;;;8.12;100.00
39793;BME280;26080;42.264;24.536;2023-10-13T02:30:42;99741.47;;;8.03;100.00
39793;BME280;26080;42.264;24.536;2023-10-13T02:33:13;99731.28;;;7.94;100.00
39793;BME280;26080;42.264;24.536;2023-10-13T02:35:39;99733.16;;;7.90;100.00
39793;BME280;26080;42.264;24.536;2023-10-13T02:38:15;99723.88;;;7.82;100.00
39793;BME280;26080;42.264;24.536;2023-10-13T02:40:42;99724.03;;;7.76;100.00
39793;BME280;26080;42.264;24.536;2023-10-13T02:43:07;99717.84;;;7.78;100.00
39793;BME280;26080;42.264;24.536;2023-10-13T02:45:33;99722.09;;;7.82;100.00
39793;BME280;26080;42.264;24.536;2023-10-13T02:48:05;99721.38;;;7.77;100.00
39793;BME280;26080;42.264;24.536;2023-10-13T02:50:40;99725.88;;;7.72;100.00
39793;BME280;26080;42.264;24.536;2023-10-13T02:53:09;99718.94;;;7.71;100.00
39793;BME280;26080;42.264;24.536;2023-10-13T02:55:38;99724.16;;;7.71;100.00
39793;BME280;26080;42.264;24.536;2023-10-13T02:58:05;99722.06;;;7.84;100.00
39793;BME280;26080;42.264;24.536;2023-10-13T03:00:31;99725.88;;;7.72;100.00
39793;BME280;26080;42.264;24.536;2023-10-13T03:02:57;99728.13;;;7.55;100.00
39793;BME280;26080;42.264;24.536;2023-10-13T03:05:26;99729.16;;;7.48;100.00
39793;BME280;26080;42.264;24.536;2023-10-13T03:07:56;99730.25;;;7.40;100.00
39793;BME280;26080;42.264;24.536;2023-10-13T03:10:23;99733.56;;;7.46;100.00
39793;BME280;26080;42.264;24.536;2023-10-13T03:12:54;99724.94;;;7.43;100.00
39793;BME280;26080;42.264;24.536;2023-10-13T03:15:20;99698.47;;;7.26;100.00
39793;BME280;26080;42.264;24.536;2023-10-13T03:17:47;99715.56;;;7.36;100.00
39793;BME280;26080;42.264;24.536;2023-10-13T03:20:15;99722.53;;;7.36;100.00
39793;BME280;26080;42.264;24.536;2023-10-13T03:22:42;99719.09;;;7.35;100.00
39793;BME280;26080;42.264;24.536;2023-10-13T03:25:11;99709.56;;;7.34;100.00
39793;BME280;26080;42.264;24.536;2023-10-13T03:27:43;99713.25;;;7.27;100.00
39793;BME280;26080;42.264;24.536;2023-10-13T03:30:20;99716.00;;;7.21;100.00
39793;BME280;26080;42.264;24.536;2023-10-13T03:32:47;99702.16;;;7.19;100.00
39793;BME280;26080;42.264;24.536;2023-10-13T03:35:20;99703.16;;;7.15;100.00
39793;BME280;26080;42.264;24.536;2023-10-13T03:38:03;99658.88;;;6.82;100.00
39793;BME280;26080;42.264;24.536;2023-10-13T03:40:29;99705.19;;;7.04;100.00
39793;BME280;26080;42.264;24.536;2023-10-13T03:42:58;99702.66;;;7.01;100.00
39793;BME280;26080;42.264;24.536;2023-10-13T03:45:50;99712.25;;;6.99;100.00
39793;BME280;26080;42.264;24.536;2023-10-13T03:48:33;99709.25;;;7.14;100.00
39793;BME280;26080;42.264;24.536;2023-10-13T03:51:06;99713.34;;;7.23;100.00
39793;BME280;26080;42.264;24.536;2023-10-13T03:53:42;99710.16;;;7.13;100.00
39793;BME280;26080;42.264;24.536;2023-10-13T03:56:21;99708.41;;;7.12;100.00
39793;BME280;26080;42.264;24.536;2023-10-13T03:59:13;99715.09;;;7.22;100.00
39793;BME280;26080;42.264;24.536;2023-10-13T04:01:42;99710.56;;;7.30;100.00
39793;BME280;26080;42.264;24.536;2023-10-13T04:04:23;99715.19;;;7.19;100.00
39793;BME280;26080;42.264;24.536;2023-10-13T04:07:08;99726.59;;;7.15;100.00
39793;BME280;26080;42.264;24.536;2023-10-13T04:09:35;99726.56;;;7.17;100.00
39793;BME280;26080;42.264;24.536;2023-10-13T04:12:05;99727.31;;;7.20;100.00
39793;BME280;26080;42.264;24.536;2023-10-13T04:14:39;99728.25;;;7.18;100.00
39793;BME280;26080;42.264;24.536;2023-10-13T04:17:24;99720.41;;;7.19;100.00
39793;BME280;26080;42.264;24.536;2023-10-13T04:19:54;99711.91;;;7.11;100.00
39793;BME280;26080;42.264;24.536;2023-10-13T04:25:16;99720.00;;;7.02;100.00
39793;BME280;26080;42.264;24.536;2023-10-13T04:28:08;99723.41;;;7.04;100.00
39793;BME280;26080;42.264;24.536;2023-10-13T04:30:44;99725.59;;;7.19;100.00
39793;BME280;26080;42.264;24.536;2023-10-13T04:33:26;99722.19;;;7.17;100.00
39793;BME280;26080;42.264;24.536;2023-10-13T04:38:44;99715.38;;;7.11;100.00
39793;BME280;26080;42.264;24.536;2023-10-13T04:41:32;99715.50;;;7.07;100.00
39793;BME280;26080;42.264;24.536;2023-10-13T04:44:05;99687.09;;;6.98;100.00
39793;BME280;26080;42.264;24.536;2023-10-13T04:46:49;99701.50;;;7.11;100.00
39793;BME280;26080;42.264;24.536;2023-10-13T04:49:15;99699.56;;;7.19;100.00
39793;BME280;26080;42.264;24.536;2023-10-13T04:52:01;99686.25;;;6.97;100.00
39793;BME280;26080;42.264;24.536;2023-10-13T04:54:44;99709.41;;;7.08;100.00
39793;BME280;26080;42.264;24.536;2023-10-13T04:57:20;99709.41;;;7.08;100.00
39793;BME280;26080;42.264;24.536;2023-10-13T04:59:52;99686.09;;;7.03;100.00
39793;BME280;26080;42.264;24.536;2023-10-13T05:02:41;99697.94;;;7.15;100.00
39793;BME280;26080;42.264;24.536;2023-10-13T05:05:11;99696.97;;;7.19;100.00
39793;BME280;26080;42.264;24.536;2023-10-13T05:07:43;99661.03;;;6.99;100.00
39793;BME280;26080;42.264;24.536;2023-10-13T05:10:27;99701.97;;;7.27;100.00
39793;BME280;26080;42.264;24.536;2023-10-13T05:13:12;99714.63;;;7.40;100.00
39793;BME280;26080;42.264;24.536;2023-10-13T05:15:56;99725.31;;;7.61;100.00
39793;BME280;26080;42.264;24.536;2023-10-13T05:18:39;99734.50;;;7.74;100.00
39793;BME280;26080;42.264;24.536;2023-10-13T05:21:23;99723.38;;;7.69;100.00
39793;BME280;26080;42.264;24.536;2023-10-13T05:24:08;99725.91;;;7.70;100.00
39793;BME280;26080;42.264;24.536;2023-10-13T05:26:53;99723.00;;;7.81;100.00
39793;BME280;26080;42.264;24.536;2023-10-13T05:29:44;99730.88;;;8.08;100.00
39793;BME280;26080;42.264;24.536;2023-10-13T05:32:29;99701.34;;;8.07;100.00
39793;BME280;26080;42.264;24.536;2023-10-13T05:35:13;99738.88;;;8.31;100.00
39793;BME280;26080;42.264;24.536;2023-10-13T05:37:57;99740.34;;;8.41;100.00
39793;BME280;26080;42.264;24.536;2023-10-13T05:40:57;99752.25;;;8.50;100.00
39793;BME280;26080;42.264;24.536;2023-10-13T05:43:42;99742.16;;;8.66;100.00
39793;BME280;26080;42.264;24.536;2023-10-13T05:46:26;99745.25;;;8.77;100.00
39793;BME280;26080;42.264;24.536;2023-10-13T05:48:53;99738.84;;;8.87;100.00
39793;BME280;26080;42.264;24.536;2023-10-13T05:51:30;99743.81;;;8.95;100.00
39793;BME280;26080;42.264;24.536;2023-10-13T05:53:59;99744.34;;;9.04;100.00
39793;BME280;26080;42.264;24.536;2023-10-13T05:56:43;99742.03;;;9.22;100.00
39793;BME280;26080;42.264;24.536;2023-10-13T05:59:28;99744.84;;;9.40;100.00
39793;BME280;26080;42.264;24.536;2023-10-13T06:02:15;99746.84;;;9.57;100.00
39793;BME280;26080;42.264;24.536;2023-10-13T06:05:10;99733.25;;;9.71;100.00
39793;BME280;26080;42.264;24.536;2023-10-13T06:07:55;99731.84;;;9.62;100.00
39793;BME280;26080;42.264;24.536;2023-10-13T06:10:40;99749.09;;;9.91;100.00
39793;BME280;26080;42.264;24.536;2023-10-13T06:13:24;99745.69;;;10.11;100.00
39793;BME280;26080;42.264;24.536;2023-10-13T06:16:16;99715.09;;;10.13;100.00
39793;BME280;26080;42.264;24.536;2023-10-13T06:19:01;99755.22;;;10.59;100.00
39793;BME280;26080;42.264;24.536;2023-10-13T06:21:46;99760.34;;;10.82;100.00
39793;BME280;26080;42.264;24.536;2023-10-13T06:24:30;99710.28;;;10.68;100.00
39793;BME280;26080;42.264;24.536;2023-10-13T06:27:16;99757.25;;;11.15;100.00
39793;BME280;26080;42.264;24.536;2023-10-13T06:30:00;99773.19;;;11.31;100.00
39793;BME280;26080;42.264;24.536;2023-10-13T06:32:26;99773.31;;;11.48;100.00
39793;BME280;26080;42.264;24.536;2023-10-13T06:34:55;99765.03;;;11.57;100.00
39793;BME280;26080;42.264;24.536;2023-10-13T06:37:30;99767.63;;;11.77;100.00
39793;BME280;26080;42.264;24.536;2023-10-13T06:40:01;99778.91;;;12.00;100.00
39793;BME280;26080;42.264;24.536;2023-10-13T06:42:44;99776.78;;;12.08;100.00
39793;BME280;26080;42.264;24.536;2023-10-13T06:45:10;99766.69;;;12.18;100.00
39793;BME280;26080;42.264;24.536;2023-10-13T06:47:37;99767.19;;;12.26;100.00
39793;BME280;26080;42.264;24.536;2023-10-13T06:50:09;99763.84;;;12.41;100.00
39793;BME280;26080;42.264;24.536;2023-10-13T06:52:50;99761.00;;;12.45;100.00
39793;BME280;26080;42.264;24.536;2023-10-13T06:55:16;99761.56;;;12.52;100.00
39793;BME280;26080;42.264;24.536;2023-10-13T06:57:53;99770.56;;;12.65;100.00
39793;BME280;26080;42.264;24.536;2023-10-13T07:00:18;99771.66;;;12.79;100.00
39793;BME280;26080;42.264;24.536;2023-10-13T07:03:02;99738.34;;;12.62;100.00
39793;BME280;26080;42.264;24.536;2023-10-13T07:08:01;99771.16;;;13.07;99.99
39793;BME280;26080;42.264;24.536;2023-10-13T07:10:29;99765.50;;;13.14;100.00
39793;BME280;26080;42.264;24.536;2023-10-13T07:12:57;99726.06;;;12.97;100.00
39793;BME280;26080;42.264;24.536;2023-10-13T07:15:25;99757.94;;;13.25;100.00
39793;BME280;26080;42.264;24.536;2023-10-13T07:17:53;99763.28;;;13.41;100.00
39793;BME280;26080;42.264;24.536;2023-10-13T07:20:25;99770.63;;;13.52;100.00
39793;BME280;26080;42.264;24.536;2023-10-13T07:22:59;99771.84;;;13.62;100.00
39793;BME280;26080;42.264;24.536;2023-10-13T07:25:33;99760.84;;;13.71;100.00
39793;BME280;26080;42.264;24.536;2023-10-13T07:28:02;99759.41;;;13.81;100.00
39793;BME280;26080;42.264;24.536;2023-10-13T07:30:35;99755.28;;;13.93;100.00
39793;BME280;26080;42.264;24.536;2023-10-13T07:33:18;99758.19;;;14.04;100.00
39793;BME280;26080;42.264;24.536;2023-10-13T07:35:48;99768.38;;;14.10;100.00
39793;BME280;26080;42.264;24.536;2023-10-13T07:38:17;99761.59;;;14.22;100.00
39793;BME280;26080;42.264;24.536;2023-10-13T07:40:46;99751.75;;;14.26;100.00
39793;BME280;26080;42.264;24.536;2023-10-13T07:43:18;99765.19;;;14.52;100.00
39793;BME280;26080;42.264;24.536;2023-10-13T07:45:49;99775.59;;;14.56;100.00
39793;BME280;26080;42.264;24.536;2023-10-13T07:48:23;99776.91;;;14.63;100.00
39793;BME280;26080;42.264;24.536;2023-10-13T07:53:27;99768.19;;;14.92;100.00
39793;BME280;26080;42.264;24.536;2023-10-13T07:55:54;99763.25;;;15.02;99.80
39793;BME280;26080;42.264;24.536;2023-10-13T07:58:24;99765.25;;;15.13;98.84
39793;BME280;26080;42.264;24.536;2023-10-13T08:00:50;99756.31;;;15.15;99.81
39793;BME280;26080;42.264;24.536;2023-10-13T08:03:31;99753.69;;;15.15;97.18
39793;BME280;26080;42.264;24.536;2023-10-13T08:06:00;99758.03;;;15.30;96.75
39793;BME280;26080;42.264;24.536;2023-10-13T08:08:44;99735.75;;;15.36;95.03
39793;BME280;26080;42.264;24.536;2023-10-13T08:11:15;99742.78;;;15.65;93.48
39793;BME280;26080;42.264;24.536;2023-10-13T08:14:00;99734.84;;;15.80;93.82
39793;BME280;26080;42.264;24.536;2023-10-13T08:16:47;99719.00;;;15.80;95.40
39793;BME280;26080;42.264;24.536;2023-10-13T08:19:16;99730.94;;;15.99;95.00
39793;BME280;26080;42.264;24.536;2023-10-13T08:21:43;99729.63;;;16.07;93.25
39793;BME280;26080;42.264;24.536;2023-10-13T08:24:18;99725.16;;;16.21;92.37
39793;BME280;26080;42.264;24.536;2023-10-13T08:26:52;99738.25;;;16.37;92.50
39793;BME280;26080;42.264;24.536;2023-10-13T08:29:36;99725.69;;;16.41;91.57
39793;BME280;26080;42.264;24.536;2023-10-13T08:32:23;99726.56;;;16.54;91.64
39793;BME280;26080;42.264;24.536;2023-10-13T08:34:49;99729.78;;;16.59;92.26
39793;BME280;26080;42.264;24.536;2023-10-13T08:37:34;99729.78;;;16.73;91.91
39793;BME280;26080;42.264;24.536;2023-10-13T08:40:12;99712.97;;;16.87;90.64
39793;BME280;26080;42.264;24.536;2023-10-13T08:42:51;99679.63;;;16.84;90.63
39793;BME280;26080;42.264;24.536;2023-10-13T08:45:30;99715.16;;;17.20;88.96
39793;BME280;26080;42.264;24.536;2023-10-13T08:47:58;99718.53;;;17.35;88.27
39793;BME280;26080;42.264;24.536;2023-10-13T08:50:42;99716.84;;;17.46;86.31
39793;BME280;26080;42.264;24.536;2023-10-13T08:53:27;99709.88;;;17.58;85.33
39793;BME280;26080;42.264;24.536;2023-10-13T08:58:40;99700.13;;;17.84;84.21
39793;BME280;26080;42.264;24.536;2023-10-13T09:01:25;99711.72;;;18.07;83.21
39793;BME280;26080;42.264;24.536;2023-10-13T09:04:11;99702.78;;;18.21;83.86
39793;BME280;26080;42.264;24.536;2023-10-13T09:06:59;99710.81;;;18.32;82.13
39793;BME280;26080;42.264;24.536;2023-10-13T09:09:25;99697.16;;;18.49;81.35
39793;BME280;26080;42.264;24.536;2023-10-13T09:12:13;99703.78;;;18.68;80.78
39793;BME280;26080;42.264;24.536;2023-10-13T09:14:41;99700.44;;;18.77;80.25
39793;BME280;26080;42.264;24.536;2023-10-13T09:17:11;99708.00;;;18.94;76.10
39793;BME280;26080;42.264;24.536;2023-10-13T09:19:55;99699.97;;;19.18;76.05
39793;BME280;26080;42.264;24.536;2023-10-13T09:22:26;99701.81;;;19.29;75.64
39793;BME280;26080;42.264;24.536;2023-10-13T09:25:02;99698.69;;;19.35;74.59
39793;BME280;26080;42.264;24.536;2023-10-13T09:27:31;99693.63;;;19.43;74.79
39793;BME280;26080;42.264;24.536;2023-10-13T09:30:04;99680.00;;;19.59;75.35
39793;BME280;26080;42.264;24.536;2023-10-13T09:33:04;99688.59;;;19.62;73.88
39793;BME280;26080;42.264;24.536;2023-10-13T09:35:31;99686.06;;;19.61;73.21
39793;BME280;26080;42.264;24.536;2023-10-13T09:38:00;99685.44;;;19.68;73.35
39793;BME280;26080;42.264;24.536;2023-10-13T09:40:28;99689.34;;;19.75;73.48
39793;BME280;26080;42.264;24.536;2023-10-13T09:43:03;99689.56;;;19.72;72.16
39793;BME280;26080;42.264;24.536;2023-10-13T09:45:40;99675.91;;;19.77;73.81
39793;BME280;26080;42.264;24.536;2023-10-13T09:48:12;99683.03;;;19.88;74.89
39793;BME280;26080;42.264;24.536;2023-10-13T09:50:47;99687.34;;;20.00;72.87
39793;BME280;26080;42.264;24.536;2023-10-13T09:53:16;99658.84;;;20.02;72.99
39793;BME280;26080;42.264;24.536;2023-10-13T09:58:39;99659.03;;;20.44;70.63
39793;BME280;26080;42.264;24.536;2023-10-13T10:01:14;99673.09;;;20.55;67.99
39793;BME280;26080;42.264;24.536;2023-10-13T10:03:46;99666.19;;;20.64;67.79
39793;BME280;26080;42.264;24.536;2023-10-13T10:06:33;99664.13;;;20.88;66.66
39793;BME280;26080;42.264;24.536;2023-10-13T10:09:09;99651.63;;;21.00;64.03
39793;BME280;26080;42.264;24.536;2023-10-13T10:14:44;99637.56;;;21.19;64.08
39793;BME280;26080;42.264;24.536;2023-10-13T10:17:14;99633.16;;;21.29;62.90
39793;BME280;26080;42.264;24.536;2023-10-13T10:19:52;99625.22;;;21.39;65.10
39793;BME280;26080;42.264;24.536;2023-10-13T10:22:32;99625.38;;;21.47;61.70
39793;BME280;26080;42.264;24.536;2023-10-13T10:25:05;99620.16;;;21.36;62.92
39793;BME280;26080;42.264;24.536;2023-10-13T10:27:57;99616.81;;;21.43;63.96
39793;BME280;26080;42.264;24.536;2023-10-13T10:30:26;99609.44;;;21.56;60.33
39793;BME280;26080;42.264;24.536;2023-10-13T10:32:56;99594.72;;;21.52;61.04
39793;BME280;26080;42.264;24.536;2023-10-13T10:35:25;99608.28;;;21.80;61.23
39793;BME280;26080;42.264;24.536;2023-10-13T10:37:56;99615.56;;;21.87;61.92
39793;BME280;26080;42.264;24.536;2023-10-13T10:40:29;99611.94;;;21.98;61.29
39793;BME280;26080;42.264;24.536;2023-10-13T10:43:08;99615.22;;;22.11;59.92
39793;BME280;26080;42.264;24.536;2023-10-13T10:45:36;99586.19;;;22.08;58.03
39793;BME280;26080;42.264;24.536;2023-10-13T10:48:02;99605.00;;;22.36;58.34
39793;BME280;26080;42.264;24.536;2023-10-13T10:50:42;99606.97;;;22.53;55.70
39793;BME280;26080;42.264;24.536;2023-10-13T10:53:09;99588.53;;;22.60;55.13
39793;BME280;26080;42.264;24.536;2023-10-13T10:55:36;99597.97;;;22.93;53.15
39793;BME280;26080;42.264;24.536;2023-10-13T10:58:02;99592.97;;;23.17;52.29
39793;BME280;26080;42.264;24.536;2023-10-13T11:00:31;99592.03;;;23.46;51.45
39793;BME280;26080;42.264;24.536;2023-10-13T11:03:15;99583.28;;;23.81;49.02
39793;BME280;26080;42.264;24.536;2023-10-13T11:05:45;99589.56;;;24.07;49.26
39793;BME280;26080;42.264;24.536;2023-10-13T11:08:24;99568.88;;;24.27;47.76
39793;BME280;26080;42.264;24.536;2023-10-13T11:11:02;99575.91;;;24.46;45.94
39793;BME280;26080;42.264;24.536;2023-10-13T11:13:43;99576.75;;;24.46;45.28
39793;BME280;26080;42.264;24.536;2023-10-13T11:16:22;99581.13;;;24.47;47.10
39793;BME280;26080;42.264;24.536;2023-10-13T11:19:08;99564.06;;;24.48;47.66
39793;BME280;26080;42.264;24.536;2023-10-13T11:21:37;99570.72;;;24.44;48.25
39793;BME280;26080;42.264;24.536;2023-10-13T11:24:02;99565.22;;;24.28;47.34
39793;BME280;26080;42.264;24.536;2023-10-13T11:26:35;99565.66;;;24.23;46.55
39793;BME280;26080;42.264;24.536;2023-10-13T11:29:05;99563.06;;;24.14;45.27
39793;BME280;26080;42.264;24.536;2023-10-13T11:31:35;99557.63;;;24.23;46.05
39793;BME280;26080;42.264;24.536;2023-10-13T11:34:03;99556.50;;;24.26;44.89
39793;BME280;26080;42.264;24.536;2023-10-13T11:36:31;99550.44;;;24.24;43.20
39793;BME280;26080;42.264;24.536;2023-10-13T11:38:58;99536.31;;;24.14;43.37
39793;BME280;26080;42.264;24.536;2023-10-13T11:41:23;99548.59;;;24.24;43.75
39793;BME280;26080;42.264;24.536;2023-10-13T11:43:50;99562.13;;;24.23;43.35
39793;BME280;26080;42.264;24.536;2023-10-13T11:49:10;99557.72;;;24.14;42.37
39793;BME280;26080;42.264;24.536;2023-10-13T11:51:40;99552.59;;;24.03;42.98
39793;BME280;26080;42.264;24.536;2023-10-13T11:54:16;99550.81;;;23.93;44.51
39793;BME280;26080;42.264;24.536;2023-10-13T11:56:43;99550.44;;;23.88;43.42
39793;BME280;26080;42.264;24.536;2023-10-13T11:59:13;99548.53;;;23.99;42.75
39793;BME280;26080;42.264;24.536;2023-10-13T12:01:52;99549.44;;;24.07;43.09
39793;BME280;26080;42.264;24.536;2023-10-13T12:04:53;99539.72;;;24.24;42.38
39793;BME280;26080;42.264;24.536;2023-10-13T12:07:22;99536.09;;;24.43;42.42
39793;BME280;26080;42.264;24.536;2023-10-13T12:10:06;99531.25;;;24.46;41.50
39793;BME280;26080;42.264;24.536;2023-10-13T12:12:40;99525.59;;;24.49;42.60
39793;BME280;26080;42.264;24.536;2023-10-13T12:15:11;99523.28;;;24.55;41.96
39793;BME280;26080;42.264;24.536;2023-10-13T12:17:50;99530.00;;;24.59;41.45
39793;BME280;26080;42.264;24.536;2023-10-13T12:20:16;99525.81;;;24.56;43.36
39793;BME280;26080;42.264;24.536;2023-10-13T12:22:57;99525.66;;;24.58;44.43
39793;BME280;26080;42.264;24.536;2023-10-13T12:25:25;99528.94;;;24.51;44.19
39793;BME280;26080;42.264;24.536;2023-10-13T12:27:53;99530.63;;;24.52;42.59
39793;BME280;26080;42.264;24.536;2023-10-13T12:30:23;99528.34;;;24.58;42.81
39793;BME280;26080;42.264;24.536;2023-10-13T12:33:13;99533.59;;;24.67;42.23
39793;BME280;26080;42.264;24.536;2023-10-13T12:35:41;99503.22;;;24.59;41.90
39793;BME280;26080;42.264;24.536;2023-10-13T12:38:24;99529.09;;;24.68;42.24
39793;BME280;26080;42.264;24.536;2023-10-13T12:41:08;99524.50;;;24.60;41.81
39793;BME280;26080;42.264;24.536;2023-10-13T12:43:52;99521.50;;;24.63;39.66
39793;BME280;26080;42.264;24.536;2023-10-13T12:46:36;99528.00;;;24.61;39.88
39793;BME280;26080;42.264;24.536;2023-10-13T12:49:20;99525.25;;;24.52;39.77
39793;BME280;26080;42.264;24.536;2023-10-13T12:52:04;99522.47;;;24.54;41.96
39793;BME280;26080;42.264;24.536;2023-10-13T12:54:30;99531.94;;;24.48;41.91
39793;BME280;26080;42.264;24.536;2023-10-13T12:57:04;99514.56;;;24.52;40.42
39793;BME280;26080;42.264;24.536;2023-10-13T12:59:34;99504.22;;;24.58;38.95
39793;BME280;26080;42.264;24.536;2023-10-13T13:02:00;99509.00;;;24.72;39.92
39793;BME280;26080;42.264;24.536;2023-10-13T13:04:31;99516.03;;;24.73;38.42
39793;BME280;26080;42.264;24.536;2023-10-13T13:07:02;99514.78;;;24.85;37.74
39793;BME280;26080;42.264;24.536;2023-10-13T13:09:31;99513.94;;;24.85;38.58
39793;BME280;26080;42.264;24.536;2023-10-13T13:11:57;99479.16;;;24.67;38.94
39793;BME280;26080;42.264;24.536;2023-10-13T13:14:23;99513.63;;;24.88;39.55
39793;BME280;26080;42.264;24.536;2023-10-13T13:16:57;99479.16;;;24.67;38.17
39793;BME280;26080;42.264;24.536;2023-10-13T13:19:32;99506.09;;;24.91;37.61
39793;BME280;26080;42.264;24.536;2023-10-13T13:22:04;99510.16;;;24.95;34.98
39793;BME280;26080;42.264;24.536;2023-10-13T13:24:30;99507.53;;;25.03;35.30
39793;BME280;26080;42.264;24.536;2023-10-13T13:26:58;99509.84;;;24.98;35.97
39793;BME280;26080;42.264;24.536;2023-10-13T13:29:30;99509.63;;;24.92;36.31
39793;BME280;26080;42.264;24.536;2023-10-13T13:31:56;99506.09;;;24.91;37.75
39793;BME280;26080;42.264;24.536;2023-10-13T13:34:21;99515.53;;;24.95;38.29
39793;BME280;26080;42.264;24.536;2023-10-13T13:36:47;99513.22;;;25.00;38.36
39793;BME280;26080;42.264;24.536;2023-10-13T13:39:18;99515.25;;;25.06;37.69
39793;BME280;26080;42.264;24.536;2023-10-13T13:41:53;99511.72;;;25.06;37.66
39793;BME280;26080;42.264;24.536;2023-10-13T13:44:23;99509.63;;;25.18;36.86
39793;BME280;26080;42.264;24.536;2023-10-13T13:46:57;99509.00;;;25.24;38.96